createdAt,value
2018-06-17T00:00:00.487Z,62.57
2018-06-17T00:02:05.267Z,63.01
2018-06-17T00:04:10.297Z,63.05
2018-06-17T00:06:15.196Z,62.66
2018-06-17T00:08:20.291Z,62.75
2018-06-17T00:10:25.379Z,63.52
2018-06-17T00:12:30.146Z,62.57
2018-06-17T00:14:34.970Z,63.40
2018-06-17T00:16:39.797Z,64.00
2018-06-17T00:18:44.559Z,64.01
2018-06-17T00:20:49.255Z,63.63
2018-06-17T00:22:54.009Z,62.83
2018-06-17T00:24:58.684Z,63.84
2018-06-17T00:27:03.573Z,64.08
2018-06-17T00:29:08.381Z,65.01
2018-06-17T00:31:13.198Z,66.08
2018-06-17T00:33:18.222Z,64.77
2018-06-17T00:35:22.932Z,64.88
2018-06-17T00:37:27.509Z,65.57
2018-06-17T00:39:32.238Z,64.84
2018-06-17T00:41:37.165Z,64.93
2018-06-17T00:43:42.034Z,63.81
2018-06-17T00:45:47.009Z,64.85
2018-06-17T00:47:51.945Z,65.62
2018-06-17T00:49:56.805Z,65.85
2018-06-17T00:52:01.482Z,64.71
2018-06-17T00:54:06.827Z,65.04
2018-06-17T00:56:11.694Z,65.23
2018-06-17T00:58:16.645Z,64.51
2018-06-17T01:00:23.109Z,62.94
2018-06-17T01:02:28.108Z,63.17
2018-06-17T01:04:33.013Z,62.40
2018-06-17T01:06:37.841Z,62.30
2018-06-17T01:08:42.501Z,63.25
2018-06-17T01:10:47.151Z,64.33
2018-06-17T01:12:51.961Z,64.29
2018-06-17T01:14:56.807Z,64.82
2018-06-17T01:17:01.648Z,65.17
2018-06-17T01:19:06.310Z,66.36
2018-06-17T01:21:11.735Z,66.39
2018-06-17T01:23:16.619Z,65.94
2018-06-17T01:25:21.539Z,65.81
2018-06-17T01:27:26.310Z,65.05
2018-06-17T01:29:31.190Z,65.83
2018-06-17T01:31:36.038Z,66.65
2018-06-17T01:33:40.954Z,66.03
2018-06-17T01:35:45.714Z,66.54
2018-06-17T01:37:50.560Z,67.15
2018-06-17T01:39:55.719Z,67.51
2018-06-17T01:42:00.599Z,67.41
2018-06-17T01:44:05.438Z,68.01
2018-06-17T01:46:10.139Z,68.16
2018-06-17T01:48:14.852Z,68.61
2018-06-17T01:50:19.564Z,68.70
2018-06-17T01:52:24.294Z,68.91
2018-06-17T01:54:29.156Z,69.21
2018-06-17T01:56:33.882Z,68.81
2018-06-17T01:58:38.581Z,69.51
2018-06-17T02:00:43.251Z,69.42
2018-06-17T02:02:47.982Z,70.36
2018-06-17T02:04:57.826Z,69.89
2018-06-17T02:07:07.589Z,69.77
2018-06-17T02:09:17.584Z,70.04
2018-06-17T02:11:27.455Z,70.52
2018-06-17T02:13:32.264Z,70.15
2018-06-17T02:15:37.017Z,69.35
2018-06-17T02:17:41.760Z,68.58
2018-06-17T02:19:46.576Z,69.07
2018-06-17T02:21:51.267Z,69.22
2018-06-17T02:23:55.993Z,69.17
2018-06-17T02:26:00.657Z,69.26
2018-06-17T02:28:05.531Z,69.29
2018-06-17T02:30:10.190Z,68.79
2018-06-17T02:32:15.130Z,68.50
2018-06-17T02:34:19.792Z,68.83
2018-06-17T02:36:24.502Z,67.89
2018-06-17T02:38:29.212Z,68.15
2018-06-17T02:40:33.911Z,68.16
2018-06-17T02:42:39.546Z,67.71
2018-06-17T02:44:44.205Z,68.01
2018-06-17T02:46:54.000Z,67.67
2018-06-17T02:49:03.840Z,67.48
2018-06-17T02:51:13.475Z,67.32
2018-06-17T02:53:23.206Z,67.56
2018-06-17T02:55:27.924Z,66.83
2018-06-17T02:57:32.663Z,67.11
2018-06-17T02:59:37.498Z,67.63
2018-06-17T03:01:42.306Z,67.05
2018-06-17T03:03:47.137Z,66.46
2018-06-17T03:05:51.962Z,66.92
2018-06-17T03:07:56.691Z,66.44
2018-06-17T03:10:02.206Z,66.54
2018-06-17T03:12:07.483Z,66.92
2018-06-17T03:14:12.143Z,67.01
2018-06-17T03:16:16.977Z,66.27
2018-06-17T03:18:21.726Z,66.08
2018-06-17T03:20:26.439Z,66.14
2018-06-17T03:22:31.136Z,65.97
2018-06-17T03:24:40.841Z,66.03
2018-06-17T03:26:50.598Z,65.04
2018-06-17T03:29:00.228Z,65.02
2018-06-17T03:31:10.195Z,65.76
2018-06-17T03:33:20.029Z,65.65
2018-06-17T03:35:29.741Z,65.73
2018-06-17T03:37:34.477Z,66.58
2018-06-17T03:39:39.242Z,66.03
2018-06-17T03:41:43.912Z,65.99
2018-06-17T03:43:49.565Z,66.25
2018-06-17T03:45:54.357Z,66.00
2018-06-17T03:47:59.288Z,66.41
2018-06-17T03:50:04.341Z,66.63
2018-06-17T03:52:09.199Z,66.16
2018-06-17T03:54:14.051Z,66.64
2018-06-17T03:56:19.136Z,65.97
2018-06-17T03:58:24.172Z,66.05
2018-06-17T04:00:29.004Z,66.41
2018-06-17T04:02:35.162Z,66.81
2018-06-17T04:04:44.972Z,66.38
2018-06-17T04:06:59.466Z,66.35
2018-06-17T04:09:05.362Z,66.35
2018-06-17T04:11:10.164Z,66.36
2018-06-17T04:13:14.794Z,66.76
2018-06-17T04:15:19.365Z,66.43
2018-06-17T04:17:24.596Z,66.04
2018-06-17T04:19:29.457Z,67.06
2018-06-17T04:21:34.070Z,67.09
2018-06-17T04:23:38.711Z,66.09
2018-06-17T04:25:43.549Z,66.45
2018-06-17T04:27:48.298Z,66.35
2018-06-17T04:29:52.996Z,66.52
2018-06-17T04:31:57.633Z,65.75
2018-06-17T04:34:02.295Z,66.64
2018-06-17T04:36:07.246Z,66.48
2018-06-17T04:38:11.579Z,66.07
2018-06-17T04:40:16.258Z,65.67
2018-06-17T04:42:20.932Z,66.48
2018-06-17T04:44:25.652Z,66.09
2018-06-17T04:46:30.356Z,66.83
2018-06-17T04:48:35.053Z,66.14
2018-06-17T04:50:39.680Z,66.29
2018-06-17T04:52:44.353Z,65.58
2018-06-17T04:54:48.983Z,66.05
2018-06-17T04:56:53.633Z,66.37
2018-06-17T04:58:58.346Z,66.27
2018-06-17T05:01:03.014Z,65.74
2018-06-17T05:03:07.670Z,66.38
2018-06-17T05:05:12.638Z,66.69
2018-06-17T05:07:17.255Z,66.71
2018-06-17T05:09:21.934Z,66.50
2018-06-17T05:11:26.614Z,65.94
2018-06-17T05:13:31.205Z,67.50
2018-06-17T05:15:35.825Z,67.10
2018-06-17T05:17:40.605Z,66.65
2018-06-17T05:19:45.314Z,66.56
2018-06-17T05:21:49.998Z,66.23
2018-06-17T05:23:54.708Z,66.51
2018-06-17T05:25:59.355Z,65.92
2018-06-17T05:28:04.052Z,66.34
2018-06-17T05:30:08.764Z,66.12
2018-06-17T05:32:13.678Z,64.95
2018-06-17T05:34:18.447Z,64.90
2018-06-17T05:36:23.316Z,65.11
2018-06-17T05:38:27.967Z,65.02
2018-06-17T05:40:32.637Z,63.92
2018-06-17T05:42:37.330Z,64.52
2018-06-17T05:44:42.060Z,64.13
2018-06-17T05:46:46.736Z,64.50
2018-06-17T05:48:51.680Z,64.23
2018-06-17T05:50:56.479Z,64.00
2018-06-17T05:53:01.088Z,64.71
2018-06-17T05:55:05.858Z,63.91
2018-06-17T05:57:11.116Z,63.73
2018-06-17T05:59:16.324Z,63.01
2018-06-17T06:01:21.124Z,63.99
2018-06-17T06:03:25.951Z,63.43
2018-06-17T06:05:31.126Z,62.96
2018-06-17T06:07:36.035Z,62.22
2018-06-17T06:09:40.808Z,62.77
2018-06-17T06:11:45.519Z,62.61
2018-06-17T06:13:50.289Z,62.72
2018-06-17T06:15:55.075Z,62.66
2018-06-17T06:17:59.950Z,61.37
2018-06-17T06:20:05.053Z,60.88
2018-06-17T06:22:09.801Z,62.88
2018-06-17T06:24:14.469Z,63.57
2018-06-17T06:26:19.351Z,63.19
2018-06-17T06:28:24.335Z,62.40
2018-06-17T06:30:29.109Z,63.47
2018-06-17T06:32:34.794Z,63.26
2018-06-17T06:34:39.554Z,62.95
2018-06-17T06:36:44.421Z,60.22
2018-06-17T06:38:49.814Z,60.37
2018-06-17T06:40:54.586Z,61.67
2018-06-17T06:42:59.317Z,60.17
2018-06-17T06:45:04.096Z,60.43
2018-06-17T06:47:08.722Z,61.54
2018-06-17T06:49:13.431Z,60.59
2018-06-17T06:51:18.159Z,60.04
2018-06-17T06:53:22.533Z,60.58
2018-06-17T06:55:27.300Z,60.40
2018-06-17T06:57:32.996Z,60.07
2018-06-17T06:59:37.661Z,60.44
2018-06-17T07:01:58.812Z,60.58
2018-06-17T07:04:20.126Z,60.55
2018-06-17T07:06:41.235Z,60.13
2018-06-17T07:11:07.723Z,60.63
2018-06-17T07:13:12.568Z,60.69
2018-06-17T07:15:19.134Z,60.11
2018-06-17T07:17:40.989Z,57.70
2018-06-17T07:19:45.807Z,59.90
2018-06-17T07:21:50.705Z,58.29
2018-06-17T07:23:55.559Z,59.17
2018-06-17T07:26:46.751Z,60.59
2018-06-17T07:29:08.358Z,60.65
2018-06-17T07:31:13.165Z,59.20
2018-06-17T07:33:17.994Z,59.92
2018-06-17T07:35:22.845Z,60.12
2018-06-17T07:37:27.576Z,60.73
2018-06-17T07:41:46.134Z,60.32
2018-06-17T07:43:51.056Z,58.59
2018-06-17T07:45:55.763Z,59.21
2018-06-17T07:48:00.934Z,58.61
2018-06-17T07:50:22.282Z,59.29
2018-06-17T07:52:43.626Z,59.71
2018-06-17T07:54:48.824Z,59.41
2018-06-17T07:56:53.776Z,58.61
2018-06-17T07:58:58.554Z,57.30
2018-06-17T08:01:03.373Z,58.25
2018-06-17T08:03:08.163Z,58.92
2018-06-17T08:05:13.085Z,58.74
2018-06-17T08:07:17.796Z,58.77
2018-06-17T08:09:23.000Z,58.23
2018-06-17T08:11:27.738Z,59.11
2018-06-17T08:13:32.494Z,57.51
2018-06-17T08:15:37.365Z,57.06
2018-06-17T08:17:42.213Z,57.61
2018-06-17T08:19:47.020Z,54.74
2018-06-17T08:21:53.006Z,55.66
2018-06-17T08:23:57.911Z,56.34
2018-06-17T08:26:02.825Z,54.22
2018-06-17T08:28:07.840Z,55.18
2018-06-17T08:30:12.693Z,55.01
2018-06-17T08:32:17.585Z,55.40
2018-06-17T08:34:22.577Z,56.71
2018-06-17T08:36:27.367Z,54.78
2018-06-17T08:38:32.116Z,54.38
2018-06-17T08:40:37.001Z,55.15
2018-06-17T08:42:41.892Z,54.82
2018-06-17T08:44:46.812Z,56.17
2018-06-17T08:46:52.119Z,56.74
2018-06-17T08:48:57.036Z,55.94
2018-06-17T08:51:01.888Z,55.17
2018-06-17T08:53:06.920Z,54.31
2018-06-17T08:55:11.829Z,55.81
2018-06-17T08:57:16.732Z,56.65
2018-06-17T08:59:22.699Z,54.92
2018-06-17T09:01:28.369Z,56.84
2018-06-17T09:03:33.355Z,56.57
2018-06-17T09:05:38.274Z,57.32
2018-06-17T09:07:43.354Z,57.44
2018-06-17T09:09:48.183Z,57.25
2018-06-17T09:11:53.015Z,56.21
2018-06-17T09:13:57.841Z,56.04
2018-06-17T09:16:02.925Z,55.63
2018-06-17T09:18:07.831Z,56.49
2018-06-17T09:20:13.026Z,56.56
2018-06-17T09:22:17.892Z,55.48
2018-06-17T09:24:22.764Z,55.73
2018-06-17T09:26:27.596Z,56.34
2018-06-17T09:28:32.696Z,56.20
2018-06-17T09:30:37.560Z,55.87
2018-06-17T09:32:42.468Z,56.19
2018-06-17T09:34:47.378Z,54.51
2018-06-17T09:36:52.254Z,55.14
2018-06-17T09:38:57.023Z,53.36
2018-06-17T09:41:01.865Z,54.59
2018-06-17T09:43:06.733Z,53.85
2018-06-17T09:45:11.507Z,54.93
2018-06-17T09:47:16.268Z,53.28
2018-06-17T09:49:21.304Z,53.71
2018-06-17T09:51:26.213Z,53.85
2018-06-17T09:53:31.002Z,53.87
2018-06-17T09:55:35.963Z,53.84
2018-06-17T09:57:40.821Z,55.83
2018-06-17T09:59:45.631Z,56.50
2018-06-17T10:01:50.505Z,56.28
2018-06-17T10:03:55.366Z,54.62
2018-06-17T10:06:00.109Z,54.55
2018-06-17T10:08:04.963Z,54.41
2018-06-17T10:10:54.851Z,53.87
2018-06-17T10:12:59.705Z,54.97
2018-06-17T10:15:04.555Z,54.42
2018-06-17T10:17:09.445Z,54.18
2018-06-17T10:19:14.504Z,53.53
2018-06-17T10:21:20.294Z,52.43
2018-06-17T10:23:25.381Z,52.83
2018-06-17T10:25:30.153Z,52.06
2018-06-17T10:27:34.993Z,52.23
2018-06-17T10:29:39.873Z,51.57
2018-06-17T10:31:44.851Z,52.30
2018-06-17T10:33:49.751Z,51.66
2018-06-17T10:35:54.736Z,51.64
2018-06-17T10:37:59.673Z,53.17
2018-06-17T10:40:04.590Z,52.94
2018-06-17T10:42:09.375Z,53.56
2018-06-17T10:44:14.255Z,53.33
2018-06-17T10:46:19.042Z,54.25
2018-06-17T10:48:23.951Z,54.47
2018-06-17T10:50:28.832Z,54.11
2018-06-17T10:52:33.828Z,54.08
2018-06-17T10:54:38.847Z,54.29
2018-06-17T10:56:43.657Z,54.71
2018-06-17T10:58:48.447Z,54.27
2018-06-17T11:00:53.316Z,53.84
2018-06-17T11:02:58.144Z,53.14
2018-06-17T11:05:03.108Z,51.93
2018-06-17T11:07:08.031Z,52.69
2018-06-17T11:09:13.452Z,51.80
2018-06-17T11:11:18.543Z,52.30
2018-06-17T11:13:23.310Z,50.21
2018-06-17T11:15:28.707Z,50.52
2018-06-17T11:17:33.605Z,51.69
2018-06-17T11:19:38.665Z,51.84
2018-06-17T11:21:43.556Z,52.68
2018-06-17T11:23:48.977Z,53.79
2018-06-17T11:25:53.999Z,54.64
2018-06-17T11:27:58.995Z,53.09
2018-06-17T11:30:04.156Z,52.58
2018-06-17T11:32:09.516Z,52.43
2018-06-17T11:34:14.793Z,52.23
2018-06-17T11:36:20.036Z,52.22
2018-06-17T11:38:25.233Z,52.79
2018-06-17T11:40:30.610Z,51.96
2018-06-17T11:42:35.670Z,51.81
2018-06-17T11:44:41.303Z,51.76
2018-06-17T11:46:46.659Z,51.83
2018-06-17T11:48:51.960Z,51.72
2018-06-17T11:51:03.556Z,51.65
2018-06-17T11:53:09.508Z,52.48
2018-06-17T11:55:14.586Z,52.53
2018-06-17T11:57:19.842Z,52.78
2018-06-17T11:59:25.058Z,53.91
2018-06-17T12:01:30.020Z,53.58
2018-06-17T12:03:34.943Z,54.05
2018-06-17T12:05:41.628Z,52.78
2018-06-17T12:07:47.074Z,52.32
2018-06-17T12:10:04.548Z,52.79
2018-06-17T12:12:09.661Z,53.85
2018-06-17T12:14:14.597Z,52.03
2018-06-17T12:16:19.629Z,51.91
2018-06-17T12:18:24.620Z,51.55
2018-06-17T12:20:29.568Z,52.32
2018-06-17T12:22:34.708Z,52.22
2018-06-17T12:24:39.718Z,51.46
2018-06-17T12:26:44.898Z,50.09
2018-06-17T12:28:50.259Z,51.97
2018-06-17T12:30:55.658Z,50.97
2018-06-17T12:33:01.539Z,51.54
2018-06-17T12:35:06.628Z,51.30
2018-06-17T12:37:12.774Z,52.45
2018-06-17T12:39:17.650Z,51.33
2018-06-17T12:41:22.708Z,50.39
2018-06-17T12:43:27.909Z,50.95
2018-06-17T12:45:32.909Z,51.56
2018-06-17T12:47:37.831Z,50.99
2018-06-17T12:49:42.866Z,52.09
2018-06-17T12:51:48.176Z,50.67
2018-06-17T12:53:53.203Z,51.30
2018-06-17T12:55:58.343Z,50.93
2018-06-17T12:58:03.333Z,51.63
2018-06-17T13:00:08.625Z,51.66
2018-06-17T13:02:13.551Z,50.85
2018-06-17T13:04:19.481Z,49.34
2018-06-17T13:06:24.799Z,49.13
2018-06-17T13:08:29.945Z,48.48
2018-06-17T13:10:36.051Z,48.82
2018-06-17T13:12:43.070Z,48.97
2018-06-17T13:14:49.484Z,49.55
2018-06-17T13:16:57.443Z,49.35
2018-06-17T13:19:03.209Z,48.34
2018-06-17T13:21:09.513Z,49.93
2018-06-17T13:23:14.698Z,48.37
2018-06-17T13:25:19.888Z,47.91
2018-06-17T13:27:24.906Z,47.71
2018-06-17T13:29:30.082Z,47.33
2018-06-17T13:31:35.000Z,46.89
2018-06-17T13:33:39.864Z,46.14
2018-06-17T13:35:44.823Z,47.79
2018-06-17T13:37:50.156Z,47.37
2018-06-17T13:39:55.093Z,47.20
2018-06-17T13:42:00.241Z,46.40
2018-06-17T13:44:05.254Z,46.87
2018-06-17T13:46:10.404Z,46.65
2018-06-17T13:48:15.889Z,45.68
2018-06-17T13:50:23.523Z,45.38
2018-06-17T13:52:28.850Z,46.55
2018-06-17T13:54:33.693Z,47.07
2018-06-17T13:56:38.752Z,46.66
2018-06-17T13:58:43.906Z,46.48
2018-06-17T14:00:50.800Z,46.39
2018-06-17T14:02:55.716Z,47.08
2018-06-17T14:05:00.569Z,46.27
2018-06-17T14:07:05.493Z,46.39
2018-06-17T14:09:11.184Z,46.10
2018-06-17T14:11:16.244Z,46.53
2018-06-17T14:13:21.444Z,47.33
2018-06-17T14:15:26.398Z,46.42
2018-06-17T14:17:31.393Z,46.89
2018-06-17T14:19:36.303Z,47.46
2018-06-17T14:21:41.296Z,47.16
2018-06-17T14:23:46.482Z,47.24
2018-06-17T14:25:51.441Z,47.49
2018-06-17T14:27:56.912Z,47.68
2018-06-17T14:30:01.783Z,45.68
2018-06-17T14:32:06.948Z,47.26
2018-06-17T14:34:11.748Z,46.79
2018-06-17T14:36:16.763Z,45.66
2018-06-17T14:38:21.703Z,46.79
2018-06-17T14:40:27.717Z,46.03
2018-06-17T14:42:37.979Z,44.78
2018-06-17T14:44:50.302Z,44.84
2018-06-17T14:47:00.205Z,45.08
2018-06-17T14:49:10.291Z,45.03
2018-06-17T14:51:20.159Z,45.62
2018-06-17T14:53:27.086Z,44.99
2018-06-17T14:55:33.199Z,45.07
2018-06-17T14:57:38.715Z,46.04
2018-06-17T14:59:44.810Z,46.58
2018-06-17T15:01:49.799Z,46.41
2018-06-17T15:03:54.962Z,45.85
2018-06-17T15:06:00.021Z,45.78
2018-06-17T15:08:04.930Z,46.41
2018-06-17T15:10:10.073Z,46.05
2018-06-17T15:12:15.774Z,45.89
2018-06-17T15:14:20.689Z,46.09
2018-06-17T15:16:25.706Z,47.32
2018-06-17T15:18:32.832Z,48.30
2018-06-17T15:20:37.721Z,48.42
2018-06-17T15:22:44.481Z,48.47
2018-06-17T15:24:49.940Z,48.77
2018-06-17T15:26:55.061Z,48.03
2018-06-17T15:29:00.274Z,47.77
2018-06-17T15:31:10.351Z,47.35
2018-06-17T15:33:20.252Z,47.87
2018-06-17T15:35:30.297Z,47.99
2018-06-17T15:37:40.556Z,48.13
2018-06-17T15:39:53.267Z,48.48
2018-06-17T15:41:58.404Z,48.93
2018-06-17T15:44:03.744Z,50.04
2018-06-17T15:46:09.816Z,49.05
2018-06-17T15:48:17.577Z,48.22
2018-06-17T15:50:23.063Z,48.89
2018-06-17T15:52:28.238Z,48.69
2018-06-17T15:54:33.228Z,48.88
2018-06-17T15:56:40.152Z,48.55
2018-06-17T15:58:45.177Z,47.48
2018-06-17T16:00:50.495Z,49.90
2018-06-17T16:02:55.415Z,50.14
2018-06-17T16:05:00.516Z,49.53
2018-06-17T16:07:05.483Z,49.84
2018-06-17T16:09:12.143Z,49.69
2018-06-17T16:11:17.228Z,49.04
2018-06-17T16:13:27.373Z,49.40
2018-06-17T16:15:37.351Z,49.22
2018-06-17T16:17:50.975Z,48.40
2018-06-17T16:20:01.265Z,48.94
2018-06-17T16:22:11.826Z,49.66
2018-06-17T16:24:19.058Z,49.71
2018-06-17T16:26:24.019Z,49.45
2018-06-17T16:28:29.585Z,49.21
2018-06-17T16:30:34.529Z,50.21
2018-06-17T16:32:39.505Z,50.01
2018-06-17T16:34:44.404Z,51.17
2018-06-17T16:36:49.334Z,49.70
2018-06-17T16:38:54.208Z,50.95
2018-06-17T16:40:59.189Z,50.82
2018-06-17T16:43:04.084Z,51.57
2018-06-17T16:45:09.093Z,51.41
2018-06-17T16:47:14.285Z,50.59
2018-06-17T16:49:19.185Z,52.30
2018-06-17T16:51:29.075Z,52.00
2018-06-17T16:53:39.093Z,51.25
2018-06-17T16:55:49.043Z,51.99
2018-06-17T16:57:59.064Z,52.96
2018-06-17T17:00:08.136Z,51.94
2018-06-17T17:02:13.131Z,52.44
2018-06-17T17:04:17.914Z,52.27
2018-06-17T17:06:22.812Z,50.14
2018-06-17T17:08:27.759Z,51.37
2018-06-17T17:10:33.539Z,51.35
2018-06-17T17:12:38.463Z,51.91
2018-06-17T17:14:45.518Z,50.93
2018-06-17T17:16:50.782Z,50.94
2018-06-17T17:18:56.116Z,51.39
2018-06-17T17:21:01.886Z,50.83
2018-06-17T17:23:06.918Z,51.03
2018-06-17T17:25:12.518Z,50.69
2018-06-17T17:27:18.152Z,50.30
2018-06-17T17:29:24.014Z,49.55
2018-06-17T17:31:33.230Z,49.54
2018-06-17T17:33:43.281Z,49.73
2018-06-17T17:35:53.691Z,48.53
2018-06-17T17:38:04.932Z,49.36
2018-06-17T17:40:15.530Z,49.98
2018-06-17T17:42:21.370Z,48.36
2018-06-17T17:44:26.693Z,49.50
2018-06-17T17:47:34.317Z,49.78
2018-06-17T17:49:39.227Z,49.39
2018-06-17T17:51:44.269Z,50.57
2018-06-17T17:53:49.247Z,49.10
2018-06-17T17:55:54.227Z,49.97
2018-06-17T17:57:59.311Z,50.36
2018-06-17T18:00:04.515Z,50.22
2018-06-17T18:02:09.623Z,49.14
2018-06-17T18:04:14.486Z,50.63
2018-06-17T18:06:19.444Z,51.63
2018-06-17T18:08:24.405Z,50.73
2018-06-17T18:10:29.412Z,51.29
2018-06-17T18:12:34.804Z,49.17
2018-06-17T18:14:39.893Z,48.58
2018-06-17T18:16:45.038Z,48.93
2018-06-17T18:18:49.835Z,49.65
2018-06-17T18:20:55.258Z,46.93
2018-06-17T18:23:00.248Z,46.65
2018-06-17T18:25:10.713Z,46.79
2018-06-17T18:27:21.286Z,45.89
2018-06-17T18:29:31.176Z,46.21
2018-06-17T18:31:41.273Z,48.22
2018-06-17T18:33:51.025Z,47.61
2018-06-17T18:36:01.187Z,46.78
2018-06-17T18:38:06.439Z,48.24
2018-06-17T18:40:11.590Z,49.84
2018-06-17T18:42:17.674Z,49.48
2018-06-17T18:44:23.015Z,49.85
2018-06-17T18:46:28.368Z,51.10
2018-06-17T18:48:33.722Z,51.31
2018-06-17T18:50:39.313Z,51.63
2018-06-17T18:52:44.296Z,50.76
2018-06-17T18:54:49.880Z,49.98
2018-06-17T18:59:05.661Z,51.11
2018-06-17T19:01:11.600Z,51.24
2018-06-17T19:03:16.910Z,51.30
2018-06-17T19:05:25.263Z,52.03
2018-06-17T19:07:30.472Z,51.71
2018-06-17T19:09:44.333Z,52.07
2018-06-17T19:11:54.706Z,53.20
2018-06-17T19:14:11.143Z,53.14
2018-06-17T19:16:24.579Z,52.85
2018-06-17T19:18:33.063Z,52.69
2018-06-17T19:20:39.911Z,53.14
2018-06-17T19:22:45.307Z,53.36
2018-06-17T19:24:50.276Z,52.39
2018-06-17T19:26:55.942Z,53.50
2018-06-17T19:29:01.492Z,53.75
2018-06-17T19:31:06.531Z,53.85
2018-06-17T19:33:11.599Z,54.75
2018-06-17T19:35:16.831Z,53.86
2018-06-17T19:37:21.910Z,53.73
2018-06-17T19:39:27.941Z,53.04
2018-06-17T19:41:33.166Z,53.80
2018-06-17T19:43:39.853Z,54.82
2018-06-17T19:45:45.959Z,54.41
2018-06-17T19:47:54.786Z,54.37
2018-06-17T19:50:06.603Z,54.70
2018-06-17T19:52:16.681Z,54.62
2018-06-17T19:54:27.897Z,55.33
2018-06-17T19:56:38.739Z,54.78
2018-06-17T19:58:50.168Z,55.66
2018-06-17T20:00:58.859Z,56.57
2018-06-17T20:03:07.119Z,55.75
2018-06-17T20:05:17.952Z,55.89
2018-06-17T20:07:28.291Z,56.05
2018-06-17T20:09:35.159Z,55.39
2018-06-17T20:11:42.426Z,55.87
2018-06-17T20:13:50.470Z,55.91
2018-06-17T20:15:56.255Z,56.18
2018-06-17T20:18:03.412Z,56.12
2018-06-17T20:20:09.698Z,56.82
2018-06-17T20:22:16.287Z,57.04
2018-06-17T20:24:22.606Z,56.96
2018-06-17T20:26:31.101Z,56.48
2018-06-17T20:28:38.194Z,56.55
2018-06-17T20:30:45.237Z,56.30
2018-06-17T20:32:55.730Z,56.92
2018-06-17T20:35:07.635Z,57.05
2018-06-17T20:37:18.034Z,55.70
2018-06-17T20:39:28.489Z,56.08
2018-06-17T20:41:39.945Z,56.40
2018-06-17T20:43:51.353Z,56.09
2018-06-17T20:45:56.224Z,55.43
2018-06-17T20:48:01.124Z,55.45
2018-06-17T20:50:06.772Z,55.92
2018-06-17T20:52:11.925Z,55.58
2018-06-17T20:54:17.163Z,55.35
2018-06-17T20:56:22.213Z,54.38
2018-06-17T20:58:27.163Z,54.38
2018-06-17T21:00:32.264Z,54.94
2018-06-17T21:02:37.307Z,55.29
2018-06-17T21:04:42.566Z,55.98
2018-06-17T21:06:47.587Z,56.31
2018-06-17T21:08:53.539Z,57.67
2018-06-17T21:10:59.926Z,57.65
2018-06-17T21:13:05.802Z,58.64
2018-06-17T21:15:18.014Z,58.51
2018-06-17T21:17:23.788Z,58.64
2018-06-17T21:19:33.882Z,59.04
2018-06-17T21:21:43.794Z,58.86
2018-06-17T21:23:53.758Z,59.18
2018-06-17T21:26:03.520Z,59.34
2018-06-17T21:28:08.707Z,59.00
2018-06-17T21:30:13.643Z,58.69
2018-06-17T21:32:18.478Z,58.39
2018-06-17T21:34:24.342Z,58.90
2018-06-17T21:36:29.135Z,58.57
2018-06-17T21:38:34.265Z,58.91
2018-06-17T21:40:39.176Z,59.73
2018-06-17T21:42:43.959Z,58.80
2018-06-17T21:44:48.715Z,59.64
2018-06-17T21:46:53.909Z,58.79
2018-06-17T21:48:58.749Z,59.12
2018-06-17T21:51:03.793Z,59.61
2018-06-17T21:53:08.724Z,59.93
2018-06-17T21:55:13.554Z,60.21
2018-06-17T21:57:18.399Z,60.79
2018-06-17T21:59:23.349Z,60.77
2018-06-17T22:01:28.204Z,60.44
2018-06-17T22:03:32.934Z,60.25
2018-06-17T22:05:37.800Z,60.26
2018-06-17T22:07:47.524Z,60.98
2018-06-17T22:09:57.381Z,60.38
2018-06-17T22:13:08.426Z,60.09
2018-06-17T22:15:18.371Z,60.09
2018-06-17T22:17:28.111Z,60.31
2018-06-17T22:19:32.949Z,61.03
2018-06-17T22:21:37.666Z,61.33
2018-06-17T22:23:42.585Z,61.54
2018-06-17T22:25:48.126Z,60.88
2018-06-17T22:27:53.667Z,61.28
2018-06-17T22:29:59.748Z,59.42
2018-06-17T22:32:04.897Z,60.03
2018-06-17T22:34:10.031Z,60.28
2018-06-17T22:36:15.379Z,59.48
2018-06-17T22:38:19.927Z,60.04
2018-06-17T22:40:24.924Z,59.69
2018-06-17T22:42:29.847Z,59.73
2018-06-17T22:44:34.664Z,59.72
2018-06-17T22:46:39.518Z,60.10
2018-06-17T22:48:44.157Z,59.63
2018-06-17T22:50:48.912Z,59.98
2018-06-17T22:53:10.050Z,59.76
2018-06-17T22:55:14.709Z,59.19
2018-06-17T22:57:24.535Z,59.48
2018-06-17T22:59:34.385Z,59.03
2018-06-17T23:01:44.142Z,57.81
2018-06-17T23:03:54.190Z,58.40
2018-06-17T23:06:04.010Z,59.42
2018-06-17T23:08:13.825Z,59.88
2018-06-17T23:10:18.511Z,59.39
2018-06-17T23:12:23.397Z,58.50
2018-06-17T23:14:28.086Z,58.83
2018-06-17T23:16:32.981Z,59.07
2018-06-17T23:18:37.895Z,58.12
2018-06-17T23:20:42.663Z,59.03
2018-06-17T23:22:47.553Z,57.54
2018-06-17T23:24:55.373Z,58.17
2018-06-17T23:27:00.404Z,58.48
2018-06-17T23:29:05.163Z,59.02
2018-06-17T23:31:10.304Z,58.27
2018-06-17T23:33:15.168Z,58.58
2018-06-17T23:35:20.177Z,58.80
2018-06-17T23:37:25.096Z,58.27
2018-06-17T23:39:30.282Z,58.73
2018-06-17T23:41:35.461Z,57.71
2018-06-17T23:43:40.896Z,57.71
2018-06-17T23:45:51.016Z,57.03
2018-06-17T23:48:01.084Z,57.23
2018-06-17T23:50:11.164Z,57.33
2018-06-17T23:52:21.083Z,56.47
2018-06-17T23:54:30.873Z,56.89
2018-06-17T23:56:35.776Z,57.91
2018-06-17T23:58:40.856Z,57.90
